sensor_id;sensor_type;location;lat;lon;timestamp;P1;durP1;ratioP1;P2;durP2;ratioP2
51190;SDS011;37253;48.736;9.294;2022-08-19T00:00:37;138.73;;;70.80;;
51190;SDS011;37253;48.736;9.294;2022-08-19T00:02:37;141.57;;;74.50;;
51190;SDS011;37253;48.736;9.294;2022-08-19T00:04:38;139.38;;;73.65;;
51190;SDS011;37253;48.736;9.294;2022-08-19T00:06:40;137.93;;;72.80;;
51190;SDS011;37253;48.736;9.294;2022-08-19T00:08:41;142.38;;;72.40;;
51190;SDS011;37253;48.736;9.294;2022-08-19T00:10:42;137.30;;;69.68;;
51190;SDS011;37253;48.736;9.294;2022-08-19T00:12:43;132.68;;;69.88;;
51190;SDS011;37253;48.736;9.294;2022-08-19T00:14:43;127.43;;;67.00;;
51190;SDS011;37253;48.736;9.294;2022-08-19T00:16:44;129.88;;;70.18;;
51190;SDS011;37253;48.736;9.294;2022-08-19T00:18:46;133.52;;;68.07;;
51190;SDS011;37253;48.736;9.294;2022-08-19T00:20:47;135.00;;;69.22;;
51190;SDS011;37253;48.736;9.294;2022-08-19T00:22:48;131.93;;;68.78;;
51190;SDS011;37253;48.736;9.294;2022-08-19T00:24:48;128.68;;;67.78;;
51190;SDS011;37253;48.736;9.294;2022-08-19T00:26:49;126.18;;;63.97;;
51190;SDS011;37253;48.736;9.294;2022-08-19T00:28:50;122.88;;;63.63;;
51190;SDS011;37253;48.736;9.294;2022-08-19T00:30:50;124.88;;;64.40;;
51190;SDS011;37253;48.736;9.294;2022-08-19T00:32:51;124.25;;;64.72;;
51190;SDS011;37253;48.736;9.294;2022-08-19T00:34:53;118.93;;;64.38;;
51190;SDS011;37253;48.736;9.294;2022-08-19T00:36:54;120.72;;;62.92;;
51190;SDS011;37253;48.736;9.294;2022-08-19T00:38:55;117.80;;;62.63;;
51190;SDS011;37253;48.736;9.294;2022-08-19T00:40:55;111.47;;;57.95;;
51190;SDS011;37253;48.736;9.294;2022-08-19T00:42:56;112.65;;;59.88;;
51190;SDS011;37253;48.736;9.294;2022-08-19T00:44:56;117.47;;;61.38;;
51190;SDS011;37253;48.736;9.294;2022-08-19T00:46:57;107.93;;;59.05;;
51190;SDS011;37253;48.736;9.294;2022-08-19T00:48:59;107.38;;;59.58;;
51190;SDS011;37253;48.736;9.294;2022-08-19T00:51:00;109.35;;;56.60;;
51190;SDS011;37253;48.736;9.294;2022-08-19T00:53:01;112.03;;;58.05;;
51190;SDS011;37253;48.736;9.294;2022-08-19T00:55:05;108.50;;;58.40;;
51190;SDS011;37253;48.736;9.294;2022-08-19T00:57:10;104.95;;;55.35;;
51190;SDS011;37253;48.736;9.294;2022-08-19T00:59:13;107.15;;;55.97;;
51190;SDS011;37253;48.736;9.294;2022-08-19T01:01:14;102.55;;;54.60;;
51190;SDS011;37253;48.736;9.294;2022-08-19T01:03:15;99.45;;;52.72;;
51190;SDS011;37253;48.736;9.294;2022-08-19T01:05:19;94.32;;;50.85;;
51190;SDS011;37253;48.736;9.294;2022-08-19T01:07:21;98.35;;;53.78;;
51190;SDS011;37253;48.736;9.294;2022-08-19T01:09:22;96.63;;;52.33;;
51190;SDS011;37253;48.736;9.294;2022-08-19T01:11:22;101.90;;;55.33;;
51190;SDS011;37253;48.736;9.294;2022-08-19T01:13:23;97.63;;;52.30;;
51190;SDS011;37253;48.736;9.294;2022-08-19T01:15:26;97.78;;;54.17;;
51190;SDS011;37253;48.736;9.294;2022-08-19T01:17:32;102.57;;;53.53;;
51190;SDS011;37253;48.736;9.294;2022-08-19T01:19:36;106.10;;;52.38;;
51190;SDS011;37253;48.736;9.294;2022-08-19T01:21:40;95.13;;;52.33;;
51190;SDS011;37253;48.736;9.294;2022-08-19T01:23:44;93.88;;;53.03;;
51190;SDS011;37253;48.736;9.294;2022-08-19T01:25:46;94.53;;;50.75;;
51190;SDS011;37253;48.736;9.294;2022-08-19T01:27:50;90.70;;;50.53;;
51190;SDS011;37253;48.736;9.294;2022-08-19T01:29:50;89.85;;;50.35;;
51190;SDS011;37253;48.736;9.294;2022-08-19T01:31:51;93.35;;;49.45;;
51190;SDS011;37253;48.736;9.294;2022-08-19T01:33:53;90.07;;;51.13;;
51190;SDS011;37253;48.736;9.294;2022-08-19T01:36:02;86.20;;;49.83;;
51190;SDS011;37253;48.736;9.294;2022-08-19T01:38:09;85.13;;;47.28;;
51190;SDS011;37253;48.736;9.294;2022-08-19T01:40:11;85.78;;;48.45;;
51190;SDS011;37253;48.736;9.294;2022-08-19T01:42:11;83.13;;;48.20;;
51190;SDS011;37253;48.736;9.294;2022-08-19T01:44:12;86.80;;;48.10;;
51190;SDS011;37253;48.736;9.294;2022-08-19T01:46:12;84.30;;;47.28;;
51190;SDS011;37253;48.736;9.294;2022-08-19T01:48:13;85.40;;;47.72;;
51190;SDS011;37253;48.736;9.294;2022-08-19T01:50:14;82.65;;;45.92;;
51190;SDS011;37253;48.736;9.294;2022-08-19T01:52:15;82.35;;;46.47;;
51190;SDS011;37253;48.736;9.294;2022-08-19T01:54:16;87.28;;;47.38;;
51190;SDS011;37253;48.736;9.294;2022-08-19T01:56:18;80.40;;;45.38;;
51190;SDS011;37253;48.736;9.294;2022-08-19T01:58:19;85.80;;;46.08;;
51190;SDS011;37253;48.736;9.294;2022-08-19T02:00:22;82.10;;;46.67;;
51190;SDS011;37253;48.736;9.294;2022-08-19T02:02:23;78.37;;;43.17;;
51190;SDS011;37253;48.736;9.294;2022-08-19T02:04:24;77.00;;;43.42;;
51190;SDS011;37253;48.736;9.294;2022-08-19T02:06:26;77.35;;;44.70;;
51190;SDS011;37253;48.736;9.294;2022-08-19T02:08:27;78.18;;;43.38;;
51190;SDS011;37253;48.736;9.294;2022-08-19T02:10:27;74.45;;;43.30;;
51190;SDS011;37253;48.736;9.294;2022-08-19T02:12:28;79.68;;;44.25;;
51190;SDS011;37253;48.736;9.294;2022-08-19T02:14:28;77.35;;;43.28;;
51190;SDS011;37253;48.736;9.294;2022-08-19T02:16:28;76.18;;;44.58;;
51190;SDS011;37253;48.736;9.294;2022-08-19T02:18:30;72.38;;;44.53;;
51190;SDS011;37253;48.736;9.294;2022-08-19T02:20:30;70.53;;;41.65;;
51190;SDS011;37253;48.736;9.294;2022-08-19T02:22:30;69.93;;;41.42;;
51190;SDS011;37253;48.736;9.294;2022-08-19T02:24:31;68.45;;;41.60;;
51190;SDS011;37253;48.736;9.294;2022-08-19T02:26:32;69.43;;;41.22;;
51190;SDS011;37253;48.736;9.294;2022-08-19T02:28:32;71.88;;;42.15;;
51190;SDS011;37253;48.736;9.294;2022-08-19T02:30:33;71.88;;;42.22;;
51190;SDS011;37253;48.736;9.294;2022-08-19T02:32:33;73.40;;;41.75;;
51190;SDS011;37253;48.736;9.294;2022-08-19T02:34:34;70.45;;;40.65;;
51190;SDS011;37253;48.736;9.294;2022-08-19T02:36:34;69.50;;;40.58;;
51190;SDS011;37253;48.736;9.294;2022-08-19T02:38:35;71.28;;;40.90;;
51190;SDS011;37253;48.736;9.294;2022-08-19T02:40:36;66.25;;;39.25;;
51190;SDS011;37253;48.736;9.294;2022-08-19T02:42:37;66.55;;;39.17;;
51190;SDS011;37253;48.736;9.294;2022-08-19T02:44:37;66.75;;;37.78;;
51190;SDS011;37253;48.736;9.294;2022-08-19T02:46:38;66.00;;;39.53;;
51190;SDS011;37253;48.736;9.294;2022-08-19T02:48:39;65.50;;;39.42;;
51190;SDS011;37253;48.736;9.294;2022-08-19T02:50:40;67.03;;;38.33;;
51190;SDS011;37253;48.736;9.294;2022-08-19T02:52:40;61.13;;;37.47;;
51190;SDS011;37253;48.736;9.294;2022-08-19T02:54:40;63.70;;;38.42;;
51190;SDS011;37253;48.736;9.294;2022-08-19T02:56:41;61.58;;;37.53;;
51190;SDS011;37253;48.736;9.294;2022-08-19T02:58:42;69.10;;;39.47;;
51190;SDS011;37253;48.736;9.294;2022-08-19T03:00:44;61.15;;;37.08;;
51190;SDS011;37253;48.736;9.294;2022-08-19T03:02:45;61.15;;;35.78;;
51190;SDS011;37253;48.736;9.294;2022-08-19T03:04:46;64.18;;;36.97;;
51190;SDS011;37253;48.736;9.294;2022-08-19T03:06:47;58.28;;;35.58;;
51190;SDS011;37253;48.736;9.294;2022-08-19T03:08:48;60.78;;;38.08;;
51190;SDS011;37253;48.736;9.294;2022-08-19T03:10:49;57.85;;;35.40;;
51190;SDS011;37253;48.736;9.294;2022-08-19T03:12:51;63.00;;;37.07;;
51190;SDS011;37253;48.736;9.294;2022-08-19T03:14:51;60.95;;;35.58;;
51190;SDS011;37253;48.736;9.294;2022-08-19T03:16:52;55.85;;;35.67;;
51190;SDS011;37253;48.736;9.294;2022-08-19T03:18:53;59.00;;;34.75;;
51190;SDS011;37253;48.736;9.294;2022-08-19T03:20:54;61.17;;;35.63;;
51190;SDS011;37253;48.736;9.294;2022-08-19T03:22:54;59.05;;;35.05;;
51190;SDS011;37253;48.736;9.294;2022-08-19T03:24:54;58.85;;;35.63;;
51190;SDS011;37253;48.736;9.294;2022-08-19T03:26:55;53.53;;;33.67;;
51190;SDS011;37253;48.736;9.294;2022-08-19T03:31:03;53.47;;;33.95;;
51190;SDS011;37253;48.736;9.294;2022-08-19T03:33:09;58.13;;;33.95;;
51190;SDS011;37253;48.736;9.294;2022-08-19T03:35:12;56.58;;;34.13;;
51190;SDS011;37253;48.736;9.294;2022-08-19T03:37:12;53.08;;;32.90;;
51190;SDS011;37253;48.736;9.294;2022-08-19T03:39:12;53.92;;;32.78;;
51190;SDS011;37253;48.736;9.294;2022-08-19T03:41:14;53.72;;;34.33;;
51190;SDS011;37253;48.736;9.294;2022-08-19T03:45:18;54.67;;;32.67;;
51190;SDS011;37253;48.736;9.294;2022-08-19T03:47:19;52.83;;;32.40;;
51190;SDS011;37253;48.736;9.294;2022-08-19T03:49:20;51.50;;;31.95;;
51190;SDS011;37253;48.736;9.294;2022-08-19T03:51:31;51.33;;;32.40;;
51190;SDS011;37253;48.736;9.294;2022-08-19T03:53:33;50.70;;;31.88;;
51190;SDS011;37253;48.736;9.294;2022-08-19T03:55:39;50.05;;;31.55;;
51190;SDS011;37253;48.736;9.294;2022-08-19T03:57:40;46.88;;;30.65;;
51190;SDS011;37253;48.736;9.294;2022-08-19T03:59:41;52.35;;;33.20;;
51190;SDS011;37253;48.736;9.294;2022-08-19T04:01:41;47.30;;;30.35;;
51190;SDS011;37253;48.736;9.294;2022-08-19T04:03:42;51.83;;;32.65;;
51190;SDS011;37253;48.736;9.294;2022-08-19T04:05:42;50.20;;;31.75;;
51190;SDS011;37253;48.736;9.294;2022-08-19T04:07:42;47.17;;;31.17;;
51190;SDS011;37253;48.736;9.294;2022-08-19T04:09:43;50.25;;;30.70;;
51190;SDS011;37253;48.736;9.294;2022-08-19T04:11:45;48.70;;;31.80;;
51190;SDS011;37253;48.736;9.294;2022-08-19T04:13:47;47.10;;;30.33;;
51190;SDS011;37253;48.736;9.294;2022-08-19T04:15:48;48.28;;;30.23;;
51190;SDS011;37253;48.736;9.294;2022-08-19T04:17:49;43.40;;;30.02;;
51190;SDS011;37253;48.736;9.294;2022-08-19T04:19:49;45.88;;;29.27;;
51190;SDS011;37253;48.736;9.294;2022-08-19T04:21:50;45.20;;;30.00;;
51190;SDS011;37253;48.736;9.294;2022-08-19T04:23:53;42.08;;;29.35;;
51190;SDS011;37253;48.736;9.294;2022-08-19T04:25:54;43.47;;;28.85;;
51190;SDS011;37253;48.736;9.294;2022-08-19T04:27:54;44.58;;;29.35;;
51190;SDS011;37253;48.736;9.294;2022-08-19T04:29:55;45.70;;;28.80;;
51190;SDS011;37253;48.736;9.294;2022-08-19T04:31:55;43.63;;;28.27;;
51190;SDS011;37253;48.736;9.294;2022-08-19T04:33:57;43.05;;;29.92;;
51190;SDS011;37253;48.736;9.294;2022-08-19T04:35:58;43.15;;;29.05;;
51190;SDS011;37253;48.736;9.294;2022-08-19T04:37:59;42.88;;;29.15;;
51190;SDS011;37253;48.736;9.294;2022-08-19T04:39:59;44.08;;;28.20;;
51190;SDS011;37253;48.736;9.294;2022-08-19T04:42:18;42.35;;;27.27;;
51190;SDS011;37253;48.736;9.294;2022-08-19T04:44:37;41.15;;;27.95;;
51190;SDS011;37253;48.736;9.294;2022-08-19T04:46:38;39.95;;;27.52;;
51190;SDS011;37253;48.736;9.294;2022-08-19T04:48:38;40.50;;;27.20;;
51190;SDS011;37253;48.736;9.294;2022-08-19T04:50:40;40.05;;;27.83;;
51190;SDS011;37253;48.736;9.294;2022-08-19T04:52:41;42.08;;;27.63;;
51190;SDS011;37253;48.736;9.294;2022-08-19T04:54:42;40.70;;;26.80;;
51190;SDS011;37253;48.736;9.294;2022-08-19T04:56:42;41.58;;;28.15;;
51190;SDS011;37253;48.736;9.294;2022-08-19T04:58:43;38.28;;;26.17;;
51190;SDS011;37253;48.736;9.294;2022-08-19T05:00:44;29.92;;;22.85;;
51190;SDS011;37253;48.736;9.294;2022-08-19T05:02:44;26.30;;;19.92;;
51190;SDS011;37253;48.736;9.294;2022-08-19T05:04:45;26.10;;;18.67;;
51190;SDS011;37253;48.736;9.294;2022-08-19T05:06:46;21.33;;;17.90;;
51190;SDS011;37253;48.736;9.294;2022-08-19T05:08:47;23.00;;;17.70;;
51190;SDS011;37253;48.736;9.294;2022-08-19T05:10:48;25.20;;;17.63;;
51190;SDS011;37253;48.736;9.294;2022-08-19T05:12:49;22.17;;;16.65;;
51190;SDS011;37253;48.736;9.294;2022-08-19T05:14:50;23.52;;;17.00;;
51190;SDS011;37253;48.736;9.294;2022-08-19T05:16:51;21.65;;;17.10;;
51190;SDS011;37253;48.736;9.294;2022-08-19T05:18:52;21.02;;;16.42;;
51190;SDS011;37253;48.736;9.294;2022-08-19T05:21:12;20.80;;;17.25;;
51190;SDS011;37253;48.736;9.294;2022-08-19T05:23:33;25.23;;;17.88;;
51190;SDS011;37253;48.736;9.294;2022-08-19T05:25:33;23.17;;;17.75;;
51190;SDS011;37253;48.736;9.294;2022-08-19T05:27:33;23.27;;;17.00;;
51190;SDS011;37253;48.736;9.294;2022-08-19T05:29:34;19.63;;;16.73;;
51190;SDS011;37253;48.736;9.294;2022-08-19T05:31:34;23.67;;;16.52;;
51190;SDS011;37253;48.736;9.294;2022-08-19T05:33:36;18.30;;;16.40;;
51190;SDS011;37253;48.736;9.294;2022-08-19T05:35:37;19.38;;;15.90;;
51190;SDS011;37253;48.736;9.294;2022-08-19T05:37:38;19.65;;;15.93;;
51190;SDS011;37253;48.736;9.294;2022-08-19T05:39:40;20.38;;;16.25;;
51190;SDS011;37253;48.736;9.294;2022-08-19T05:41:41;21.35;;;16.88;;
51190;SDS011;37253;48.736;9.294;2022-08-19T05:43:42;22.75;;;16.55;;
51190;SDS011;37253;48.736;9.294;2022-08-19T05:45:42;21.90;;;17.73;;
51190;SDS011;37253;48.736;9.294;2022-08-19T05:47:43;18.77;;;16.30;;
51190;SDS011;37253;48.736;9.294;2022-08-19T05:49:44;22.23;;;16.60;;
51190;SDS011;37253;48.736;9.294;2022-08-19T05:51:45;28.15;;;16.48;;
51190;SDS011;37253;48.736;9.294;2022-08-19T05:53:45;19.05;;;16.17;;
51190;SDS011;37253;48.736;9.294;2022-08-19T05:55:46;22.77;;;16.83;;
51190;SDS011;37253;48.736;9.294;2022-08-19T05:57:46;22.13;;;17.67;;
51190;SDS011;37253;48.736;9.294;2022-08-19T05:59:47;25.95;;;18.30;;
51190;SDS011;37253;48.736;9.294;2022-08-19T06:01:48;21.38;;;17.48;;
51190;SDS011;37253;48.736;9.294;2022-08-19T06:03:50;23.77;;;19.88;;
51190;SDS011;37253;48.736;9.294;2022-08-19T06:05:50;23.05;;;18.13;;
51190;SDS011;37253;48.736;9.294;2022-08-19T06:07:51;20.30;;;18.02;;
51190;SDS011;37253;48.736;9.294;2022-08-19T06:09:51;21.45;;;18.40;;
51190;SDS011;37253;48.736;9.294;2022-08-19T06:11:53;24.23;;;17.58;;
51190;SDS011;37253;48.736;9.294;2022-08-19T06:13:55;21.85;;;16.65;;
51190;SDS011;37253;48.736;9.294;2022-08-19T06:15:57;20.42;;;15.98;;
51190;SDS011;37253;48.736;9.294;2022-08-19T06:17:57;17.83;;;15.85;;
51190;SDS011;37253;48.736;9.294;2022-08-19T06:19:58;18.67;;;15.40;;
51190;SDS011;37253;48.736;9.294;2022-08-19T06:21:58;19.73;;;15.80;;
51190;SDS011;37253;48.736;9.294;2022-08-19T06:23:59;17.80;;;15.02;;
51190;SDS011;37253;48.736;9.294;2022-08-19T06:26:00;17.98;;;14.02;;
51190;SDS011;37253;48.736;9.294;2022-08-19T06:28:00;18.52;;;14.38;;
51190;SDS011;37253;48.736;9.294;2022-08-19T06:30:01;16.00;;;14.32;;
51190;SDS011;37253;48.736;9.294;2022-08-19T06:32:03;16.17;;;14.43;;
51190;SDS011;37253;48.736;9.294;2022-08-19T06:34:04;15.45;;;13.90;;
51190;SDS011;37253;48.736;9.294;2022-08-19T06:36:05;17.48;;;14.10;;
51190;SDS011;37253;48.736;9.294;2022-08-19T06:38:05;17.38;;;14.50;;
51190;SDS011;37253;48.736;9.294;2022-08-19T06:40:06;17.17;;;14.63;;
51190;SDS011;37253;48.736;9.294;2022-08-19T06:42:08;18.73;;;16.65;;
51190;SDS011;37253;48.736;9.294;2022-08-19T06:46:13;20.45;;;16.10;;
51190;SDS011;37253;48.736;9.294;2022-08-19T06:48:14;18.88;;;15.60;;
51190;SDS011;37253;48.736;9.294;2022-08-19T06:50:14;17.45;;;15.05;;
51190;SDS011;37253;48.736;9.294;2022-08-19T06:52:15;17.23;;;15.30;;
51190;SDS011;37253;48.736;9.294;2022-08-19T06:54:16;16.25;;;14.48;;
51190;SDS011;37253;48.736;9.294;2022-08-19T06:56:19;17.63;;;15.65;;
51190;SDS011;37253;48.736;9.294;2022-08-19T06:58:25;21.85;;;17.52;;
51190;SDS011;37253;48.736;9.294;2022-08-19T07:00:25;21.42;;;17.50;;
51190;SDS011;37253;48.736;9.294;2022-08-19T07:02:26;23.48;;;16.65;;
51190;SDS011;37253;48.736;9.294;2022-08-19T07:04:27;20.98;;;17.23;;
51190;SDS011;37253;48.736;9.294;2022-08-19T07:06:30;23.60;;;16.92;;
51190;SDS011;37253;48.736;9.294;2022-08-19T07:08:31;20.00;;;17.15;;
51190;SDS011;37253;48.736;9.294;2022-08-19T07:10:32;19.50;;;16.83;;
51190;SDS011;37253;48.736;9.294;2022-08-19T07:12:34;20.02;;;16.15;;
51190;SDS011;37253;48.736;9.294;2022-08-19T07:14:35;17.45;;;15.60;;
51190;SDS011;37253;48.736;9.294;2022-08-19T07:16:39;19.67;;;15.93;;
51190;SDS011;37253;48.736;9.294;2022-08-19T07:18:39;18.65;;;15.98;;
51190;SDS011;37253;48.736;9.294;2022-08-19T07:20:40;18.45;;;15.55;;
51190;SDS011;37253;48.736;9.294;2022-08-19T07:22:41;17.55;;;15.68;;
51190;SDS011;37253;48.736;9.294;2022-08-19T07:24:41;18.10;;;15.43;;
51190;SDS011;37253;48.736;9.294;2022-08-19T07:26:42;18.40;;;16.33;;
51190;SDS011;37253;48.736;9.294;2022-08-19T07:28:43;20.42;;;15.77;;
51190;SDS011;37253;48.736;9.294;2022-08-19T07:30:44;17.20;;;15.45;;
51190;SDS011;37253;48.736;9.294;2022-08-19T07:32:44;16.75;;;15.05;;
51190;SDS011;37253;48.736;9.294;2022-08-19T07:34:44;18.30;;;15.35;;
51190;SDS011;37253;48.736;9.294;2022-08-19T07:36:45;16.20;;;14.55;;
51190;SDS011;37253;48.736;9.294;2022-08-19T07:38:46;18.88;;;14.35;;
51190;SDS011;37253;48.736;9.294;2022-08-19T07:40:48;17.30;;;15.50;;
51190;SDS011;37253;48.736;9.294;2022-08-19T07:42:48;19.67;;;15.13;;
51190;SDS011;37253;48.736;9.294;2022-08-19T07:44:48;17.10;;;14.32;;
51190;SDS011;37253;48.736;9.294;2022-08-19T07:46:51;16.17;;;14.45;;
51190;SDS011;37253;48.736;9.294;2022-08-19T07:48:53;16.80;;;14.93;;
51190;SDS011;37253;48.736;9.294;2022-08-19T07:50:57;16.50;;;14.80;;
51190;SDS011;37253;48.736;9.294;2022-08-19T07:53:01;18.27;;;15.18;;
51190;SDS011;37253;48.736;9.294;2022-08-19T07:55:02;16.30;;;14.70;;
51190;SDS011;37253;48.736;9.294;2022-08-19T07:57:04;16.83;;;15.15;;
51190;SDS011;37253;48.736;9.294;2022-08-19T07:59:05;16.27;;;14.68;;
51190;SDS011;37253;48.736;9.294;2022-08-19T08:01:06;16.38;;;14.77;;
51190;SDS011;37253;48.736;9.294;2022-08-19T08:03:07;15.80;;;14.20;;
51190;SDS011;37253;48.736;9.294;2022-08-19T08:05:08;15.20;;;13.52;;
51190;SDS011;37253;48.736;9.294;2022-08-19T08:07:28;15.68;;;14.18;;
51190;SDS011;37253;48.736;9.294;2022-08-19T08:09:47;16.90;;;15.18;;
51190;SDS011;37253;48.736;9.294;2022-08-19T08:11:51;15.57;;;14.07;;
51190;SDS011;37253;48.736;9.294;2022-08-19T08:13:53;16.40;;;13.85;;
51190;SDS011;37253;48.736;9.294;2022-08-19T08:15:54;15.60;;;13.95;;
51190;SDS011;37253;48.736;9.294;2022-08-19T08:17:54;17.20;;;14.77;;
51190;SDS011;37253;48.736;9.294;2022-08-19T08:19:54;16.63;;;15.02;;
51190;SDS011;37253;48.736;9.294;2022-08-19T08:21:56;18.10;;;15.40;;
51190;SDS011;37253;48.736;9.294;2022-08-19T08:23:58;18.35;;;14.93;;
51190;SDS011;37253;48.736;9.294;2022-08-19T08:25:58;16.50;;;14.80;;
51190;SDS011;37253;48.736;9.294;2022-08-19T08:27:59;16.25;;;14.65;;
51190;SDS011;37253;48.736;9.294;2022-08-19T08:30:00;16.50;;;14.80;;
51190;SDS011;37253;48.736;9.294;2022-08-19T08:32:00;16.05;;;14.35;;
51190;SDS011;37253;48.736;9.294;2022-08-19T08:34:01;17.27;;;14.23;;
51190;SDS011;37253;48.736;9.294;2022-08-19T08:36:03;17.52;;;14.30;;
51190;SDS011;37253;48.736;9.294;2022-08-19T08:40:11;17.10;;;15.40;;
51190;SDS011;37253;48.736;9.294;2022-08-19T08:42:23;16.75;;;15.10;;
51190;SDS011;37253;48.736;9.294;2022-08-19T08:44:44;16.17;;;14.57;;
51190;SDS011;37253;48.736;9.294;2022-08-19T08:46:53;19.17;;;15.00;;
51190;SDS011;37253;48.736;9.294;2022-08-19T08:49:02;16.45;;;14.80;;
51190;SDS011;37253;48.736;9.294;2022-08-19T08:51:25;15.98;;;14.32;;
51190;SDS011;37253;48.736;9.294;2022-08-19T08:53:29;16.02;;;14.43;;
51190;SDS011;37253;48.736;9.294;2022-08-19T08:55:31;14.47;;;12.97;;
51190;SDS011;37253;48.736;9.294;2022-08-19T08:57:36;16.27;;;14.73;;
51190;SDS011;37253;48.736;9.294;2022-08-19T08:59:50;17.02;;;15.23;;
51190;SDS011;37253;48.736;9.294;2022-08-19T09:01:51;16.60;;;14.85;;
51190;SDS011;37253;48.736;9.294;2022-08-19T09:03:52;17.17;;;15.40;;
51190;SDS011;37253;48.736;9.294;2022-08-19T09:08:01;18.02;;;16.20;;
51190;SDS011;37253;48.736;9.294;2022-08-19T09:10:20;19.10;;;16.15;;
51190;SDS011;37253;48.736;9.294;2022-08-19T09:12:31;18.48;;;16.58;;
51190;SDS011;37253;48.736;9.294;2022-08-19T09:14:48;19.05;;;16.15;;
51190;SDS011;37253;48.736;9.294;2022-08-19T09:16:51;20.38;;;16.35;;
51190;SDS011;37253;48.736;9.294;2022-08-19T09:18:52;18.15;;;16.25;;
51190;SDS011;37253;48.736;9.294;2022-08-19T09:20:53;22.33;;;16.23;;
51190;SDS011;37253;48.736;9.294;2022-08-19T09:22:54;17.58;;;15.80;;
51190;SDS011;37253;48.736;9.294;2022-08-19T09:24:54;19.55;;;16.55;;
51190;SDS011;37253;48.736;9.294;2022-08-19T09:26:55;18.15;;;16.25;;
51190;SDS011;37253;48.736;9.294;2022-08-19T09:28:55;18.10;;;16.08;;
51190;SDS011;37253;48.736;9.294;2022-08-19T09:30:58;18.70;;;16.75;;
51190;SDS011;37253;48.736;9.294;2022-08-19T09:32:58;18.52;;;16.45;;
51190;SDS011;37253;48.736;9.294;2022-08-19T09:34:59;21.23;;;15.57;;
51190;SDS011;37253;48.736;9.294;2022-08-19T09:37:00;23.40;;;16.15;;
51190;SDS011;37253;48.736;9.294;2022-08-19T09:39:01;24.63;;;15.95;;
51190;SDS011;37253;48.736;9.294;2022-08-19T09:41:04;19.08;;;16.85;;
51190;SDS011;37253;48.736;9.294;2022-08-19T09:43:05;19.30;;;16.73;;
51190;SDS011;37253;48.736;9.294;2022-08-19T09:45:07;18.10;;;16.27;;
51190;SDS011;37253;48.736;9.294;2022-08-19T09:47:08;18.77;;;16.70;;
51190;SDS011;37253;48.736;9.294;2022-08-19T09:49:09;19.42;;;16.17;;
51190;SDS011;37253;48.736;9.294;2022-08-19T09:51:11;18.75;;;16.70;;
51190;SDS011;37253;48.736;9.294;2022-08-19T09:53:14;18.60;;;16.80;;
51190;SDS011;37253;48.736;9.294;2022-08-19T09:55:15;22.20;;;17.00;;
51190;SDS011;37253;48.736;9.294;2022-08-19T09:57:16;18.05;;;16.20;;
51190;SDS011;37253;48.736;9.294;2022-08-19T09:59:18;18.05;;;16.00;;
51190;SDS011;37253;48.736;9.294;2022-08-19T10:01:19;19.75;;;15.98;;
51190;SDS011;37253;48.736;9.294;2022-08-19T10:03:22;20.73;;;16.92;;
51190;SDS011;37253;48.736;9.294;2022-08-19T10:05:23;20.45;;;16.90;;
51190;SDS011;37253;48.736;9.294;2022-08-19T10:07:42;17.77;;;16.08;;
51190;SDS011;37253;48.736;9.294;2022-08-19T10:09:42;17.83;;;16.02;;
51190;SDS011;37253;48.736;9.294;2022-08-19T10:11:43;17.98;;;16.27;;
51190;SDS011;37253;48.736;9.294;2022-08-19T10:13:49;19.33;;;17.30;;
51190;SDS011;37253;48.736;9.294;2022-08-19T10:15:50;18.58;;;16.55;;
51190;SDS011;37253;48.736;9.294;2022-08-19T10:17:51;18.52;;;16.45;;
51190;SDS011;37253;48.736;9.294;2022-08-19T10:19:52;18.40;;;16.50;;
51190;SDS011;37253;48.736;9.294;2022-08-19T10:21:53;18.45;;;16.58;;
51190;SDS011;37253;48.736;9.294;2022-08-19T10:23:55;18.08;;;15.55;;
51190;SDS011;37253;48.736;9.294;2022-08-19T10:25:59;18.42;;;15.95;;
51190;SDS011;37253;48.736;9.294;2022-08-19T10:27:59;19.02;;;17.02;;
51190;SDS011;37253;48.736;9.294;2022-08-19T10:30:00;18.48;;;16.67;;
51190;SDS011;37253;48.736;9.294;2022-08-19T10:32:01;19.02;;;16.27;;
51190;SDS011;37253;48.736;9.294;2022-08-19T10:34:03;18.92;;;16.80;;
51190;SDS011;37253;48.736;9.294;2022-08-19T10:36:05;18.33;;;16.42;;
51190;SDS011;37253;48.736;9.294;2022-08-19T10:38:09;18.73;;;16.70;;
51190;SDS011;37253;48.736;9.294;2022-08-19T10:40:10;18.88;;;16.98;;
51190;SDS011;37253;48.736;9.294;2022-08-19T10:42:11;19.33;;;17.33;;
51190;SDS011;37253;48.736;9.294;2022-08-19T10:44:13;19.15;;;16.70;;
51190;SDS011;37253;48.736;9.294;2022-08-19T10:46:14;19.75;;;16.98;;
51190;SDS011;37253;48.736;9.294;2022-08-19T10:48:15;18.85;;;16.77;;
51190;SDS011;37253;48.736;9.294;2022-08-19T10:50:15;20.00;;;16.52;;
51190;SDS011;37253;48.736;9.294;2022-08-19T10:52:34;19.02;;;17.02;;
51190;SDS011;37253;48.736;9.294;2022-08-19T10:54:35;21.23;;;16.58;;
51190;SDS011;37253;48.736;9.294;2022-08-19T10:56:54;18.42;;;16.50;;
51190;SDS011;37253;48.736;9.294;2022-08-19T10:58:55;18.70;;;16.75;;
51190;SDS011;37253;48.736;9.294;2022-08-19T11:00:57;20.60;;;18.00;;
51190;SDS011;37253;48.736;9.294;2022-08-19T11:02:58;21.58;;;18.15;;
51190;SDS011;37253;48.736;9.294;2022-08-19T11:04:58;19.02;;;17.00;;
51190;SDS011;37253;48.736;9.294;2022-08-19T11:06:59;19.60;;;17.60;;
51190;SDS011;37253;48.736;9.294;2022-08-19T11:08:59;18.92;;;16.65;;
51190;SDS011;37253;48.736;9.294;2022-08-19T11:11:00;18.27;;;16.45;;
51190;SDS011;37253;48.736;9.294;2022-08-19T11:13:02;19.23;;;17.27;;
51190;SDS011;37253;48.736;9.294;2022-08-19T11:15:03;19.63;;;17.33;;
51190;SDS011;37253;48.736;9.294;2022-08-19T11:17:04;18.98;;;17.05;;
51190;SDS011;37253;48.736;9.294;2022-08-19T11:19:05;18.92;;;17.02;;
51190;SDS011;37253;48.736;9.294;2022-08-19T11:21:16;18.08;;;16.27;;
51190;SDS011;37253;48.736;9.294;2022-08-19T11:23:26;18.55;;;16.73;;
51190;SDS011;37253;48.736;9.294;2022-08-19T11:25:26;19.27;;;17.27;;
51190;SDS011;37253;48.736;9.294;2022-08-19T11:27:27;24.02;;;18.35;;
51190;SDS011;37253;48.736;9.294;2022-08-19T11:29:28;18.77;;;16.88;;
51190;SDS011;37253;48.736;9.294;2022-08-19T11:31:30;18.75;;;16.75;;
51190;SDS011;37253;48.736;9.294;2022-08-19T11:33:32;18.95;;;17.00;;
51190;SDS011;37253;48.736;9.294;2022-08-19T11:35:32;18.58;;;16.73;;
51190;SDS011;37253;48.736;9.294;2022-08-19T11:37:33;18.63;;;16.70;;
51190;SDS011;37253;48.736;9.294;2022-08-19T11:39:37;18.23;;;16.42;;
51190;SDS011;37253;48.736;9.294;2022-08-19T11:41:37;19.40;;;17.30;;
51190;SDS011;37253;48.736;9.294;2022-08-19T11:43:38;18.20;;;16.30;;
51190;SDS011;37253;48.736;9.294;2022-08-19T11:45:39;18.35;;;16.45;;
51190;SDS011;37253;48.736;9.294;2022-08-19T11:47:41;18.67;;;16.95;;
51190;SDS011;37253;48.736;9.294;2022-08-19T11:49:41;18.85;;;16.65;;
51190;SDS011;37253;48.736;9.294;2022-08-19T11:51:42;19.20;;;16.67;;
51190;SDS011;37253;48.736;9.294;2022-08-19T11:53:45;17.80;;;16.00;;
51190;SDS011;37253;48.736;9.294;2022-08-19T11:55:46;18.52;;;16.63;;
51190;SDS011;37253;48.736;9.294;2022-08-19T11:57:47;18.80;;;16.90;;
51190;SDS011;37253;48.736;9.294;2022-08-19T11:59:49;17.90;;;16.05;;
51190;SDS011;37253;48.736;9.294;2022-08-19T12:01:50;18.25;;;16.45;;
51190;SDS011;37253;48.736;9.294;2022-08-19T12:03:51;19.70;;;15.93;;